Time;durP1;ratioP1;P1;durP2;ratioP2;P2;SDS_P1;SDS_P2;PMS_P1;PMS_P2;Temp;Humidity;BMP_temperature;BMP_pressure;BME280_temperature;BME280_humidity;BME280_pressure;Samples;Min_cycle;Max_cycle;Signal;HPM_P1;HPM_P2
2023/07/31 00:01:20;;;;;;;4.20;3.80;;;;;;;15.81;77.73;100631.06;5011249;28;20252;-74
2023/07/31 00:03:47;;;;;;;4.27;3.73;;;;;;;15.78;78.21;100621.13;5011009;28;20726;-74
2023/07/31 00:06:16;;;;;;;6.10;3.73;;;;;;;15.74;78.15;100622.97;5014046;28;20193;-74
2023/07/31 00:08:45;;;;;;;6.77;3.63;;;;;;;15.72;78.19;100617.22;5011578;28;20644;-74
2023/07/31 00:11:11;;;;;;;4.83;4.10;;;;;;;15.69;78.32;100624.03;5014578;28;20212;-74
2023/07/31 00:13:44;;;;;;;6.70;4.10;;;;;;;15.67;78.39;100615.66;5014437;28;20200;-72
2023/07/31 00:16:12;;;;;;;5.83;4.20;;;;;;;15.65;78.90;100623.22;5014626;28;20200;-74
2023/07/31 00:18:39;;;;;;;6.17;4.00;;;;;;;15.63;78.60;100622.81;5016095;28;20198;-74
2023/07/31 00:21:06;;;;;;;5.87;4.10;;;;;;;15.62;78.72;100617.84;5015552;28;20295;-74
2023/07/31 00:23:33;;;;;;;6.10;3.77;;;;;;;15.61;78.67;100610.97;5014243;28;20283;-73
2023/07/31 00:26:02;;;;;;;4.63;4.00;;;;;;;15.59;78.74;100613.25;5014161;28;20671;-73
2023/07/31 00:28:31;;;;;;;6.77;4.10;;;;;;;15.56;79.07;100611.28;5014275;28;20250;-74
2023/07/31 00:30:58;;;;;;;5.73;3.87;;;;;;;15.55;79.01;100605.19;5029225;28;20315;-74
2023/07/31 00:33:28;;;;;;;5.70;4.10;;;;;;;15.51;79.24;100607.03;5012435;28;20243;-74
2023/07/31 00:35:55;;;;;;;6.90;4.33;;;;;;;15.50;79.13;100602.84;5014225;28;20284;-74
2023/07/31 00:38:22;;;;;;;7.37;4.27;;;;;;;15.49;78.72;100611.97;5014173;28;20198;-74
2023/07/31 00:40:51;;;;;;;4.40;4.00;;;;;;;15.48;79.19;100615.72;5013868;28;20252;-74
2023/07/31 00:43:19;;;;;;;6.10;4.00;;;;;;;15.46;79.18;100604.69;5019572;28;20227;-74
2023/07/31 00:45:46;;;;;;;9.33;4.57;;;;;;;15.45;79.43;100600.47;5026686;28;20261;-74
2023/07/31 00:48:20;;;;;;;5.13;4.30;;;;;;;15.44;79.38;100598.16;5029442;28;20634;-74
2023/07/31 00:50:47;;;;;;;4.33;3.90;;;;;;;15.42;79.08;100598.53;5013475;28;20402;-74
2023/07/31 00:53:17;;;;;;;5.23;4.07;;;;;;;15.40;79.50;100595.47;5013782;28;20185;-74
2023/07/31 00:55:47;;;;;;;7.43;4.30;;;;;;;15.40;79.80;100592.81;5015590;28;20213;-74
2023/07/31 00:58:16;;;;;;;9.57;4.37;;;;;;;15.39;79.14;100590.50;5013858;28;20197;-74
2023/07/31 01:00:53;;;;;;;5.30;3.77;;;;;;;15.37;79.32;100600.72;5039960;28;20231;-74
2023/07/31 01:03:22;;;;;;;6.83;4.07;;;;;;;15.37;79.52;100587.44;5008614;28;20208;-74
2023/07/31 01:05:57;;;;;;;6.30;4.40;;;;;;;15.36;79.22;100585.91;5013640;28;20288;-74
2023/07/31 01:08:36;;;;;;;7.73;4.20;;;;;;;15.34;79.63;100580.94;5013381;28;20223;-74
2023/07/31 01:11:18;;;;;;;5.73;4.50;;;;;;;15.32;79.75;100580.47;5013264;28;20208;-74
2023/07/31 01:13:48;;;;;;;7.73;4.80;;;;;;;15.31;79.57;100570.94;5028975;28;20204;-73
2023/07/31 01:16:19;;;;;;;6.10;4.30;;;;;;;15.30;79.94;100580.06;5013328;28;20292;-74
2023/07/31 01:18:52;;;;;;;8.77;4.13;;;;;;;15.31;80.12;100580.84;5011861;28;20208;-74
2023/07/31 01:21:31;;;;;;;8.73;4.23;;;;;;;15.29;80.16;100591.84;5028418;28;20591;-74
2023/07/31 01:24:23;;;;;;;6.33;4.13;;;;;;;15.28;80.11;100574.34;5028366;28;20338;-74
2023/07/31 01:27:07;;;;;;;9.57;4.07;;;;;;;15.30;80.00;100588.03;5007631;28;20661;-74
2023/07/31 01:29:43;;;;;;;4.60;4.07;;;;;;;15.33;80.04;100574.06;5029863;28;20196;-74
2023/07/31 01:32:12;;;;;;;6.07;3.90;;;;;;;15.34;80.26;100575.59;5013025;28;20226;-74
2023/07/31 01:34:43;;;;;;;7.83;4.83;;;;;;;15.36;80.39;100581.31;5012707;28;20205;-74
2023/07/31 01:37:10;;;;;;;8.40;4.47;;;;;;;15.39;80.49;100585.94;5027408;28;20228;-74
2023/07/31 01:39:37;;;;;;;5.27;4.37;;;;;;;15.42;80.48;100582.56;5013495;28;20215;-74
2023/07/31 01:42:06;;;;;;;7.97;4.03;;;;;;;15.45;80.10;100581.84;5028140;28;20652;-74
2023/07/31 01:44:32;;;;;;;8.37;4.20;;;;;;;15.50;80.30;100570.13;5012725;28;20668;-74
2023/07/31 01:47:00;;;;;;;7.33;4.43;;;;;;;15.53;80.56;100574.75;5019700;28;20398;-74
2023/07/31 01:49:27;;;;;;;7.30;4.40;;;;;;;15.57;80.30;100575.56;5012750;28;20252;-74
2023/07/31 01:51:54;;;;;;;5.00;4.17;;;;;;;15.60;80.50;100564.19;5012630;28;20216;-74
2023/07/31 01:54:25;;;;;;;5.97;4.10;;;;;;;15.64;80.04;100549.03;5027704;28;20212;-74
2023/07/31 01:56:53;;;;;;;9.37;4.60;;;;;;;15.66;80.39;100542.25;5032012;28;20220;-74
2023/07/31 01:59:22;;;;;;;5.70;4.43;;;;;;;15.70;79.98;100537.72;5011002;28;20572;-74
2023/07/31 02:01:53;;;;;;;5.63;4.20;;;;;;;15.72;79.90;100543.47;5032679;28;20228;-74
2023/07/31 02:04:22;;;;;;;9.70;4.33;;;;;;;15.75;79.95;100541.97;5011939;28;20194;-74
2023/07/31 02:06:50;;;;;;;6.07;4.03;;;;;;;15.76;79.25;100532.84;5012045;28;20275;-74
2023/07/31 02:09:18;;;;;;;4.63;3.53;;;;;;;15.79;79.92;100534.81;5027359;28;20262;-74
2023/07/31 02:11:51;;;;;;;8.03;3.90;;;;;;;15.80;79.48;100539.78;5027190;28;20232;-74
2023/07/31 02:14:21;;;;;;;7.37;3.30;;;;;;;15.82;79.26;100534.84;5012002;28;20212;-74
2023/07/31 02:16:51;;;;;;;6.43;3.30;;;;;;;15.82;79.05;100532.19;5025640;28;20457;-74
2023/07/31 02:19:20;;;;;;;6.50;3.30;;;;;;;15.83;78.81;100533.72;5016526;28;20299;-74
2023/07/31 02:21:46;;;;;;;5.47;3.10;;;;;;;15.85;79.05;100534.13;5011681;28;20651;-74
2023/07/31 02:24:13;;;;;;;5.87;3.20;;;;;;;15.86;78.93;100540.22;5027037;28;20619;-74
2023/07/31 02:26:43;;;;;;;7.20;3.90;;;;;;;15.87;78.61;100545.19;5015644;28;20207;-74
2023/07/31 02:29:14;;;;;;;4.80;3.17;;;;;;;15.88;78.20;100535.31;5007988;28;20317;-74
2023/07/31 02:31:41;;;;;;;3.97;2.90;;;;;;;15.90;78.11;100536.47;5010047;28;20273;-74
2023/07/31 02:34:09;;;;;;;6.00;2.80;;;;;;;15.94;78.26;100541.84;5010172;28;20207;-74
2023/07/31 02:36:36;;;;;;;5.90;3.00;;;;;;;15.96;78.01;100528.94;5010519;28;20266;-74
2023/07/31 02:39:03;;;;;;;6.73;3.03;;;;;;;15.98;77.95;100529.31;5010557;28;20567;-74
2023/07/31 02:41:35;;;;;;;4.07;2.73;;;;;;;15.96;77.45;100513.72;5011386;28;20212;-74
2023/07/31 02:44:02;;;;;;;6.30;2.90;;;;;;;15.97;77.64;100509.94;5010834;28;20688;-74
2023/07/31 02:46:32;;;;;;;7.10;2.57;;;;;;;15.99;77.18;100512.22;5011292;28;20638;-74
2023/07/31 02:48:59;;;;;;;4.63;2.23;;;;;;;15.98;76.97;100506.13;5026460;28;20231;-74
2023/07/31 02:51:27;;;;;;;4.40;2.40;;;;;;;15.96;76.70;100510.28;5009896;28;20216;-74
2023/07/31 02:53:57;;;;;;;4.07;2.77;;;;;;;15.94;76.48;100504.56;5026512;28;20238;-74
2023/07/31 02:56:26;;;;;;;4.67;2.40;;;;;;;15.92;76.31;100510.25;5026629;28;20207;-74
2023/07/31 02:58:55;;;;;;;3.67;2.30;;;;;;;15.92;75.98;100506.81;5011594;28;20676;-73
2023/07/31 03:01:22;;;;;;;3.77;2.10;;;;;;;15.90;75.95;100501.09;5010921;28;20734;-74
2023/07/31 03:03:49;;;;;;;5.73;2.23;;;;;;;15.89;76.21;100512.88;5009903;28;20574;-74
2023/07/31 03:06:15;;;;;;;5.50;2.47;;;;;;;15.91;75.90;100507.94;5008370;28;20749;-74
2023/07/31 03:08:49;;;;;;;5.17;2.20;;;;;;;15.88;75.44;100503.34;5026500;28;20203;-74
2023/07/31 03:11:21;;;;;;;3.03;1.93;;;;;;;15.88;75.22;100509.44;5018704;28;20226;-74
2023/07/31 03:13:57;;;;;;;4.57;1.87;;;;;;;15.87;75.33;100510.56;5026039;28;20203;-74
2023/07/31 03:16:31;;;;;;;2.37;2.10;;;;;;;15.85;75.27;100510.16;5009129;28;20541;-74
2023/07/31 03:19:01;;;;;;;5.33;2.50;;;;;;;15.86;75.10;100508.25;5009888;28;20311;-74
2023/07/31 03:21:32;;;;;;;9.47;2.40;;;;;;;15.83;74.92;100506.34;5010971;28;20717;-74
2023/07/31 03:24:17;;;;;;;2.33;1.93;;;;;;;15.81;75.30;100516.56;5025200;28;20193;-74
2023/07/31 03:26:55;;;;;;;3.07;2.17;;;;;;;15.80;74.97;100513.16;5006843;28;20231;-74
2023/07/31 03:29:37;;;;;;;2.40;2.10;;;;;;;15.82;75.20;100513.53;5005891;28;20197;-74
2023/07/31 03:32:08;;;;;;;3.50;2.40;;;;;;;15.78;75.24;100512.72;5009922;28;20308;-74
2023/07/31 03:34:38;;;;;;;5.20;2.70;;;;;;;15.77;74.89;100518.41;5009915;28;20296;-74
2023/07/31 03:37:09;;;;;;;8.60;2.43;;;;;;;15.79;75.00;100518.81;5009762;28;20640;-73
2023/07/31 03:39:43;;;;;;;5.23;2.37;;;;;;;15.77;74.71;100513.06;5026003;28;20201;-74
2023/07/31 03:42:10;;;;;;;4.83;2.40;;;;;;;15.79;75.06;100521.50;5030080;28;20237;-74
2023/07/31 03:44:40;;;;;;;6.60;2.70;;;;;;;15.80;74.81;100523.03;5029897;28;20367;-74
2023/07/31 03:47:16;;;;;;;2.60;2.00;;;;;;;15.81;75.06;100520.00;5013364;28;20207;-74
2023/07/31 03:49:51;;;;;;;3.97;2.13;;;;;;;15.83;75.06;100524.97;5029389;28;20264;-74
2023/07/31 03:52:22;;;;;;;4.37;2.63;;;;;;;15.84;74.94;100521.94;5011562;28;20224;-74
2023/07/31 03:54:56;;;;;;;5.70;2.60;;;;;;;15.88;75.16;100519.34;5014461;28;20200;-74
2023/07/31 03:57:57;;;;;;;4.43;2.20;;;;;;;15.91;74.67;100522.03;5014260;28;20220;-74
2023/07/31 04:00:30;;;;;;;3.93;2.40;;;;;;;15.95;74.43;100517.53;5014258;28;20209;-74
2023/07/31 04:03:08;;;;;;;3.50;2.10;;;;;;;15.99;74.30;100517.56;5015417;28;20202;-74
2023/07/31 04:05:42;;;;;;;4.77;2.07;;;;;;;16.03;74.06;100516.47;5014022;28;20196;-74
2023/07/31 04:08:14;;;;;;;4.23;2.43;;;;;;;16.08;74.05;100523.34;5029261;28;20204;-74
2023/07/31 04:10:58;;;;;;;2.13;1.73;;;;;;;16.11;73.94;100519.97;5010903;28;20226;-74
2023/07/31 04:13:30;;;;;;;3.33;1.73;;;;;;;16.15;74.08;100504.81;5032241;28;20231;-74
2023/07/31 04:16:02;;;;;;;4.60;2.00;;;;;;;16.19;73.45;100510.94;5013678;28;20203;-74
2023/07/31 04:18:39;;;;;;;3.37;2.27;;;;;;;16.22;72.82;100512.88;5013908;28;20191;-74
2023/07/31 04:21:23;;;;;;;3.47;2.13;;;;;;;16.27;72.71;100517.88;5019077;28;20623;-74
2023/07/31 04:23:55;;;;;;;6.03;1.80;;;;;;;16.31;72.24;100513.34;5011586;28;20233;-74
2023/07/31 04:26:32;;;;;;;5.37;1.90;;;;;;;16.36;72.78;100508.44;5025764;28;20254;-74
2023/07/31 04:29:12;;;;;;;3.40;2.00;;;;;;;16.41;72.69;100518.06;5028887;28;20675;-74
2023/07/31 04:31:48;;;;;;;6.50;2.07;;;;;;;16.44;72.66;100510.09;5013786;28;20226;-74
2023/07/31 04:34:20;;;;;;;5.60;2.03;;;;;;;16.48;72.48;100512.78;5010712;28;20185;-73
2023/07/31 04:36:50;;;;;;;4.20;1.83;;;;;;;16.51;72.19;100512.06;5015289;28;20204;-74
2023/07/31 04:39:33;;;;;;;4.53;2.10;;;;;;;16.55;71.43;100510.97;5012529;28;20627;-74
2023/07/31 04:42:05;;;;;;;3.63;1.97;;;;;;;16.59;71.63;100506.44;5012798;28;20638;-74
2023/07/31 04:44:41;;;;;;;2.70;1.57;;;;;;;16.64;72.11;100516.78;5016014;28;20323;-73
2023/07/31 04:47:13;;;;;;;6.20;1.97;;;;;;;16.68;71.86;100516.81;5011095;28;20200;-74
2023/07/31 04:49:42;;;;;;;5.37;1.87;;;;;;;16.71;71.98;100516.81;5011098;28;20436;-74
2023/07/31 04:52:16;;;;;;;2.93;1.60;;;;;;;16.73;72.23;100522.59;5015666;28;20621;-74
2023/07/31 04:54:57;;;;;;;4.77;1.90;;;;;;;16.76;72.51;100516.50;5009055;28;20224;-73
2023/07/31 04:57:31;;;;;;;3.73;1.97;;;;;;;16.79;72.68;100520.31;5025608;28;20754;-74
2023/07/31 05:00:03;;;;;;;3.40;2.07;;;;;;;16.79;72.44;100520.31;5011003;28;20203;-74
2023/07/31 05:05:23;;;;;;;1.90;1.47;;;;;;;16.82;73.33;100515.00;5025153;28;20262;-74
2023/07/31 05:07:53;;;;;;;4.43;2.03;;;;;;;16.85;73.42;100508.19;5017205;28;20210;-73
2023/07/31 05:10:23;;;;;;;2.97;1.70;;;;;;;16.85;73.65;100505.50;5011098;28;20197;-74
2023/07/31 05:12:58;;;;;;;4.87;1.93;;;;;;;16.86;74.34;100499.06;5008375;28;20204;-74
2023/07/31 05:15:28;;;;;;;3.73;1.70;;;;;;;16.85;74.25;100502.84;5010924;28;20254;-74
2023/07/31 05:17:56;;;;;;;5.57;1.90;;;;;;;16.89;74.49;100503.66;5025271;28;20295;-74
2023/07/31 05:20:27;;;;;;;6.03;1.90;;;;;;;16.90;74.85;100494.50;5035580;28;20218;-74
2023/07/31 05:22:54;;;;;;;3.83;1.70;;;;;;;16.93;74.78;100486.53;5011080;28;20428;-74
2023/07/31 05:25:31;;;;;;;5.37;2.00;;;;;;;16.99;74.80;100484.28;5017568;28;20258;-74
2023/07/31 05:28:09;;;;;;;4.20;2.00;;;;;;;17.00;74.65;100485.81;5012474;28;20735;-72
2023/07/31 05:30:36;;;;;;;4.57;1.90;;;;;;;17.03;74.78;100480.50;5012041;28;20472;-74
2023/07/31 05:33:10;;;;;;;3.80;1.70;;;;;;;17.08;74.85;100477.50;5012699;28;20197;-75
2023/07/31 05:35:38;;;;;;;5.07;1.90;;;;;;;17.18;75.05;100479.47;5014201;28;20746;-74
2023/07/31 05:38:10;;;;;;;2.37;1.70;;;;;;;17.25;74.50;100479.53;5012187;28;20272;-74
2023/07/31 05:40:40;;;;;;;2.30;1.73;;;;;;;17.29;74.66;100472.28;5011570;28;20295;-74
2023/07/31 05:43:10;;;;;;;5.90;1.80;;;;;;;17.33;74.41;100483.03;5011717;28;20595;-74
2023/07/31 05:45:41;;;;;;;4.50;1.60;;;;;;;17.39;74.24;100473.53;5027752;28;20209;-74
2023/07/31 05:48:11;;;;;;;2.33;1.70;;;;;;;17.41;74.14;100471.25;5015731;28;20204;-74
2023/07/31 05:50:39;;;;;;;2.70;1.60;;;;;;;17.46;73.80;100466.34;5009873;28;20474;-74
2023/07/31 05:53:11;;;;;;;6.97;2.07;;;;;;;17.46;74.37;100471.69;5012878;28;20227;-74
2023/07/31 05:55:43;;;;;;;3.20;2.10;;;;;;;17.52;73.94;100475.53;5026897;28;20224;-74
2023/07/31 05:58:13;;;;;;;4.20;2.27;;;;;;;17.62;73.82;100463.34;5011509;28;20579;-74
2023/07/31 06:00:47;;;;;;;4.33;1.80;;;;;;;17.64;73.61;100467.19;5014949;28;20213;-73
2023/07/31 06:03:22;;;;;;;2.87;1.50;;;;;;;17.69;73.65;100460.72;5013017;28;20287;-74
2023/07/31 06:05:51;;;;;;;3.17;1.87;;;;;;;17.71;73.24;100463.78;5010604;28;20199;-74
2023/07/31 06:08:21;;;;;;;4.17;2.00;;;;;;;17.72;73.39;100465.31;5025747;28;20266;-74
2023/07/31 06:10:51;;;;;;;2.50;1.60;;;;;;;17.78;72.89;100461.91;5009751;28;20223;-74
2023/07/31 06:13:22;;;;;;;3.83;1.70;;;;;;;17.80;72.96;100466.88;5011209;28;20279;-74
2023/07/31 06:15:54;;;;;;;3.57;1.60;;;;;;;17.84;72.69;100470.31;5011575;28;20204;-74
2023/07/31 06:18:21;;;;;;;1.67;1.43;;;;;;;17.87;72.55;100473.00;5024178;28;20239;-74
2023/07/31 06:20:53;;;;;;;2.00;1.70;;;;;;;17.85;72.88;100459.25;5007268;28;20235;-74
2023/07/31 06:23:20;;;;;;;3.03;1.60;;;;;;;17.86;72.44;100462.69;5015074;28;20548;-72
2023/07/31 06:25:47;;;;;;;4.03;1.93;;;;;;;17.87;73.06;100458.88;5025929;28;20709;-74
2023/07/31 06:28:13;;;;;;;3.57;1.57;;;;;;;17.87;72.21;100459.66;5015726;28;20200;-74
2023/07/31 06:30:41;;;;;;;4.80;1.97;;;;;;;17.91;72.21;100463.09;5010649;28;20207;-74
2023/07/31 06:33:08;;;;;;;3.20;1.60;;;;;;;17.91;72.34;100465.00;5019383;28;20653;-74
2023/07/31 06:35:35;;;;;;;6.00;2.30;;;;;;;17.90;72.54;100463.47;5013983;28;20486;-74
2023/07/31 06:38:02;;;;;;;2.63;1.70;;;;;;;17.94;72.10;100466.91;5011037;28;20219;-74
2023/07/31 06:40:28;;;;;;;3.73;1.70;;;;;;;17.97;72.06;100466.94;5012360;28;20585;-74
2023/07/31 06:42:54;;;;;;;3.97;1.80;;;;;;;17.98;72.03;100465.81;5015408;28;20200;-74
2023/07/31 06:45:21;;;;;;;3.30;1.53;;;;;;;18.04;72.34;100471.53;5014912;28;20565;-72
2023/07/31 06:47:49;;;;;;;4.50;1.63;;;;;;;18.01;71.69;100465.03;5010372;28;20204;-73
2023/07/31 06:50:15;;;;;;;4.57;1.90;;;;;;;18.09;71.64;100461.25;5000565;28;20200;-74
2023/07/31 06:52:42;;;;;;;3.40;1.77;;;;;;;18.15;71.80;100467.75;5010526;28;20253;-73
2023/07/31 06:55:18;;;;;;;4.07;1.70;;;;;;;18.15;71.50;100472.31;5010818;28;20208;-73
2023/07/31 06:57:44;;;;;;;2.07;1.83;;;;;;;18.17;71.91;100478.06;5010603;28;20905;-74
2023/07/31 07:00:12;;;;;;;3.83;1.70;;;;;;;18.21;72.10;100478.84;5009669;28;20663;-74
2023/07/31 07:02:38;;;;;;;4.07;2.03;;;;;;;18.18;72.12;100477.69;5012965;28;20299;-74
2023/07/31 07:05:07;;;;;;;7.17;2.00;;;;;;;18.19;72.71;100473.88;5011677;28;20207;-73
2023/07/31 07:07:34;;;;;;;4.03;1.70;;;;;;;18.14;73.06;100478.81;5008743;28;20201;-74
2023/07/31 07:10:00;;;;;;;3.30;1.60;;;;;;;18.09;73.53;100471.94;5018678;28;20215;-74
2023/07/31 07:12:26;;;;;;;3.73;1.70;;;;;;;18.15;73.62;100481.13;5008019;28;20209;-74
2023/07/31 07:14:53;;;;;;;3.50;1.90;;;;;;;18.16;74.06;100479.22;5011081;28;20196;-73
2023/07/31 07:17:20;;;;;;;2.90;1.73;;;;;;;18.11;74.07;100471.56;5014805;28;20200;-74
2023/07/31 07:19:46;;;;;;;3.90;1.83;;;;;;;18.05;74.32;100476.50;5014606;28;20205;-74
2023/07/31 07:22:14;;;;;;;5.80;2.20;;;;;;;18.03;74.78;100476.13;5018011;28;20228;-73
2023/07/31 07:24:40;;;;;;;3.90;1.60;;;;;;;18.01;75.03;100473.03;5016919;28;20196;-75
2023/07/31 07:27:07;;;;;;;4.03;2.13;;;;;;;17.98;75.30;100478.38;5013953;28;20212;-74
2023/07/31 07:29:34;;;;;;;3.23;1.97;;;;;;;17.94;75.78;100473.03;5013772;28;20185;-75
2023/07/31 07:32:01;;;;;;;4.40;2.10;;;;;;;18.01;76.45;100474.97;5013604;28;20227;-74
2023/07/31 07:34:28;;;;;;;7.47;2.10;;;;;;;18.03;76.74;100473.44;5013655;28;20211;-74
2023/07/31 07:36:54;;;;;;;4.37;1.90;;;;;;;18.03;77.45;100460.09;5014090;28;20231;-75
2023/07/31 07:39:22;;;;;;;3.27;2.00;;;;;;;18.11;77.03;100474.25;5013140;28;20219;-74
2023/07/31 07:41:49;;;;;;;2.73;1.70;;;;;;;18.19;76.94;100465.06;5017059;28;20223;-75
2023/07/31 07:44:15;;;;;;;3.93;1.70;;;;;;;18.18;76.91;100472.34;5014197;28;20197;-74
2023/07/31 07:46:42;;;;;;;4.20;2.10;;;;;;;18.19;76.77;100465.84;5014000;28;20208;-74
2023/07/31 07:49:08;;;;;;;2.67;1.67;;;;;;;18.24;76.79;100470.06;5012626;28;20204;-74
2023/07/31 07:51:34;;;;;;;2.50;1.80;;;;;;;18.29;77.04;100469.69;5021878;28;20582;-74
2023/07/31 07:54:01;;;;;;;3.23;1.70;;;;;;;18.29;76.73;100465.13;5014191;28;20279;-74
2023/07/31 07:56:29;;;;;;;2.50;1.90;;;;;;;18.33;76.99;100465.16;5014441;28;20203;-73
2023/07/31 07:58:55;;;;;;;3.17;2.13;;;;;;;18.36;77.19;100462.47;5011539;28;20219;-74
2023/07/31 08:01:22;;;;;;;4.73;1.90;;;;;;;18.44;76.64;100469.38;5012881;28;20239;-74
2023/07/31 08:03:48;;;;;;;2.47;1.80;;;;;;;18.52;76.92;100462.88;5013219;28;20201;-74
2023/07/31 08:06:15;;;;;;;3.20;1.90;;;;;;;18.57;77.33;100459.06;5015805;28;20577;-74
2023/07/31 08:08:41;;;;;;;2.57;1.70;;;;;;;18.64;77.10;100459.84;5017026;28;20208;-74
2023/07/31 08:11:08;;;;;;;2.93;1.90;;;;;;;18.64;76.10;100457.16;5013255;28;20220;-74
2023/07/31 08:13:36;;;;;;;3.43;1.90;;;;;;;18.64;75.79;100461.75;5011236;28;20574;-75
2023/07/31 08:16:03;;;;;;;4.67;2.30;;;;;;;18.62;75.68;100461.38;5014197;28;20196;-74
2023/07/31 08:18:29;;;;;;;2.40;1.80;;;;;;;18.67;76.34;100459.06;5011977;28;20193;-74
2023/07/31 08:20:55;;;;;;;3.00;1.90;;;;;;;18.67;76.47;100464.41;5009337;28;20220;-74
2023/07/31 08:23:22;;;;;;;3.63;2.00;;;;;;;18.66;76.10;100456.75;5012773;28;20552;-74
2023/07/31 08:25:49;;;;;;;1.90;1.70;;;;;;;18.76;76.18;100458.69;5013638;28;20192;-74
2023/07/31 08:28:16;;;;;;;5.07;2.17;;;;;;;18.75;76.21;100459.81;5014619;28;20204;-74
2023/07/31 08:30:43;;;;;;;3.00;1.80;;;;;;;18.80;76.29;100465.56;5012339;28;20295;-75
2023/07/31 08:33:10;;;;;;;2.53;2.00;;;;;;;18.80;76.56;100462.13;5012759;28;20211;-74
2023/07/31 08:35:37;;;;;;;2.70;2.13;;;;;;;18.86;76.35;100460.59;5012460;28;20209;-75
2023/07/31 08:38:03;;;;;;;4.97;1.90;;;;;;;18.92;76.54;100467.84;5012327;28;20205;-74
2023/07/31 08:40:30;;;;;;;3.23;1.77;;;;;;;18.93;76.13;100469.38;5012654;28;20221;-74
2023/07/31 08:43:01;;;;;;;6.23;2.00;;;;;;;18.92;75.76;100462.50;5012167;28;20615;-74
2023/07/31 08:45:28;;;;;;;2.93;1.80;;;;;;;18.98;75.93;100457.50;5013872;28;20196;-74
2023/07/31 08:47:57;;;;;;;5.33;2.13;;;;;;;19.02;75.93;100464.41;5012797;28;20204;-74
2023/07/31 08:50:23;;;;;;;2.70;2.10;;;;;;;19.05;75.75;100458.25;5012312;28;20223;-74
2023/07/31 08:52:51;;;;;;;3.10;2.10;;;;;;;19.08;75.31;100456.72;5012185;28;20205;-74
2023/07/31 08:55:23;;;;;;;4.97;2.13;;;;;;;19.15;75.51;100448.72;5010636;28;20203;-75
2023/07/31 08:57:51;;;;;;;2.93;1.77;;;;;;;19.16;75.12;100452.91;5011506;28;20605;-74
2023/07/31 09:00:17;;;;;;;3.80;2.23;;;;;;;19.21;74.99;100447.97;5011695;28;20207;-74
2023/07/31 09:02:47;;;;;;;5.07;2.17;;;;;;;19.28;74.87;100457.88;5012048;28;20235;-74
2023/07/31 09:05:16;;;;;;;5.20;1.97;;;;;;;19.30;74.58;100456.34;5012921;28;20204;-74
2023/07/31 09:07:46;;;;;;;4.90;2.13;;;;;;;19.39;74.82;100451.34;5017510;28;20602;-74
2023/07/31 09:10:13;;;;;;;3.13;1.93;;;;;;;19.47;75.01;100452.09;5010447;28;20197;-74
2023/07/31 09:12:40;;;;;;;2.77;1.90;;;;;;;19.50;74.61;100446.72;5013009;28;20703;-74
2023/07/31 09:15:08;;;;;;;2.73;1.97;;;;;;;19.50;73.63;100441.38;5016713;28;20197;-74
2023/07/31 09:17:36;;;;;;;4.37;1.97;;;;;;;19.57;73.80;100445.94;5013338;28;20202;-73
2023/07/31 09:20:16;;;;;;;3.63;1.80;;;;;;;19.57;73.57;100433.31;5015310;28;20215;-74
2023/07/31 09:22:43;;;;;;;2.23;1.80;;;;;;;19.67;73.48;100450.50;5017960;28;20248;-74
2023/07/31 09:25:16;;;;;;;5.30;1.97;;;;;;;19.78;73.67;100449.31;5010458;28;20200;-73
2023/07/31 09:27:50;;;;;;;4.20;2.27;;;;;;;19.91;73.51;100446.94;5018294;28;20262;-74
2023/07/31 09:30:17;;;;;;;3.20;2.07;;;;;;;20.05;73.31;100447.63;5011056;28;20220;-74
2023/07/31 09:32:44;;;;;;;4.60;1.97;;;;;;;20.19;73.62;100446.81;5011140;28;20231;-74
2023/07/31 09:35:20;;;;;;;3.17;1.70;;;;;;;20.31;72.57;100436.38;5014212;28;20215;-74
2023/07/31 09:37:50;;;;;;;3.37;1.70;;;;;;;20.44;72.41;100444.72;5007640;28;20246;-74
2023/07/31 09:40:26;;;;;;;4.57;2.33;;;;;;;20.58;71.83;100433.88;5015588;28;20205;-74
2023/07/31 09:42:52;;;;;;;4.33;1.77;;;;;;;20.72;71.76;100436.44;5008975;28;20815;-74
2023/07/31 09:45:19;;;;;;;4.57;2.60;;;;;;;20.77;69.57;100434.13;5010421;28;20832;-74
2023/07/31 09:47:47;;;;;;;3.63;1.93;;;;;;;20.94;70.74;100430.53;5008468;28;20204;-74
2023/07/31 09:50:16;;;;;;;5.53;2.47;;;;;;;21.09;69.96;100425.78;5009340;28;20205;-74
2023/07/31 09:52:43;;;;;;;4.67;1.80;;;;;;;21.19;68.53;100417.63;5009448;28;20578;-74
2023/07/31 09:55:10;;;;;;;3.53;1.80;;;;;;;21.31;69.13;100429.78;5012020;28;20211;-73
2023/07/31 09:57:40;;;;;;;4.22;2.00;;;;;;;21.39;67.31;100429.28;5009398;28;20570;-74
2023/07/31 10:00:09;;;;;;;3.35;1.90;;;;;;;21.46;67.86;100421.16;5010893;28;20196;-74
2023/07/31 10:02:38;;;;;;;3.42;2.00;;;;;;;21.57;67.00;100421.78;5007628;28;20220;-74
2023/07/31 10:05:06;;;;;;;5.13;1.65;;;;;;;21.68;66.01;100427.81;5010894;28;20211;-73
2023/07/31 10:07:38;;;;;;;4.30;1.80;;;;;;;21.79;66.52;100417.66;5011395;28;20197;-73
2023/07/31 10:10:06;;;;;;;4.22;1.70;;;;;;;21.79;68.51;100419.63;5007740;28;20595;-74
2023/07/31 10:12:34;;;;;;;2.50;1.90;;;;;;;21.87;64.32;100412.97;5005939;28;20221;-74
2023/07/31 10:15:01;;;;;;;3.28;1.80;;;;;;;21.93;62.93;100406.72;5007760;28;20201;-74
2023/07/31 10:17:27;;;;;;;3.03;1.70;;;;;;;21.99;61.64;100402.41;5012103;28;20734;-74
2023/07/31 10:19:54;;;;;;;3.67;1.88;;;;;;;22.12;63.28;100405.31;5008945;28;20196;-74
2023/07/31 10:22:21;;;;;;;2.75;1.67;;;;;;;22.17;62.63;100407.53;5006443;28;20290;-73
2023/07/31 10:24:51;;;;;;;2.38;1.77;;;;;;;22.14;60.73;100409.13;5007147;28;20660;-74
2023/07/31 10:27:17;;;;;;;3.10;1.83;;;;;;;22.23;61.55;100417.44;5004959;28;20205;-74
2023/07/31 10:29:47;;;;;;;3.08;1.63;;;;;;;22.18;61.97;100412.53;5003085;28;20209;-73
2023/07/31 10:32:15;;;;;;;3.33;1.95;;;;;;;22.14;59.98;100409.13;5005181;28;20219;-74
2023/07/31 10:34:42;;;;;;;4.63;1.85;;;;;;;22.01;59.78;100416.25;5014583;28;20208;-73
2023/07/31 10:37:22;;;;;;;3.63;1.55;;;;;;;21.80;60.41;100418.44;5008408;28;20207;-74
2023/07/31 10:39:58;;;;;;;4.32;1.80;;;;;;;21.60;60.79;100412.91;5006688;28;20204;-74
2023/07/31 10:42:33;;;;;;;5.70;2.35;;;;;;;21.56;62.21;100420.25;5005374;28;20220;-74
2023/07/31 10:45:02;;;;;;;3.90;1.50;;;;;;;21.40;61.40;100420.06;5007954;28;20203;-73
2023/07/31 10:47:28;;;;;;;3.85;1.67;;;;;;;21.27;59.65;100413.69;5008880;28;20287;-74
2023/07/31 10:50:13;;;;;;;2.40;1.60;;;;;;;21.23;60.09;100412.19;5005627;28;20308;-74
2023/07/31 10:52:40;;;;;;;5.97;2.53;;;;;;;21.21;61.61;100415.28;5004649;28;20219;-73
2023/07/31 10:55:31;;;;;;;3.43;1.60;;;;;;;21.10;61.14;100411.19;5022500;28;20200;-74
2023/07/31 10:58:05;;;;;;;2.50;1.80;;;;;;;21.07;60.99;100401.25;5011196;28;20205;-74
2023/07/31 11:00:31;;;;;;;3.50;1.63;;;;;;;21.06;60.81;100397.78;5007285;28;20200;-74
2023/07/31 11:02:59;;;;;;;3.03;1.90;;;;;;;21.02;61.86;100397.09;5006574;28;20521;-74
2023/07/31 11:05:45;;;;;;;2.40;1.60;;;;;;;21.05;60.92;100392.84;5008673;28;20224;-73
2023/07/31 11:08:13;;;;;;;2.93;1.67;;;;;;;20.98;61.29;100398.28;5005992;28;20236;-73
2023/07/31 11:10:41;;;;;;;3.70;1.70;;;;;;;21.00;60.39;100401.34;5008272;28;20193;-73
2023/07/31 11:13:08;;;;;;;4.40;1.80;;;;;;;21.00;60.95;100404.03;5009914;28;20223;-73
2023/07/31 11:15:34;;;;;;;3.10;1.60;;;;;;;21.02;61.03;100405.16;5007771;28;20201;-74
2023/07/31 11:18:03;;;;;;;3.13;1.80;;;;;;;21.08;62.00;100398.19;5009207;28;20587;-74
2023/07/31 11:20:30;;;;;;;3.33;1.83;;;;;;;21.09;62.32;100405.06;5006777;28;20204;-73
2023/07/31 11:22:59;;;;;;;4.73;1.80;;;;;;;21.08;60.53;100392.81;5011144;28;20208;-74
2023/07/31 11:25:26;;;;;;;4.20;1.90;;;;;;;21.15;62.85;100391.94;5009215;28;20204;-73
2023/07/31 11:27:56;;;;;;;3.63;2.00;;;;;;;21.20;63.66;100386.91;5025569;28;20200;-73
2023/07/31 11:30:22;;;;;;;2.63;1.70;;;;;;;21.27;61.03;100384.13;5007135;28;20243;-74
2023/07/31 11:32:50;;;;;;;3.90;1.87;;;;;;;21.36;61.29;100379.03;5008444;28;20335;-74
2023/07/31 11:35:17;;;;;;;4.00;1.80;;;;;;;21.48;61.32;100375.81;5008012;28;20227;-74
2023/07/31 11:37:45;;;;;;;3.43;1.70;;;;;;;21.54;59.89;100381.50;5013445;28;20207;-74
2023/07/31 11:40:12;;;;;;;2.60;1.40;;;;;;;21.61;60.31;100371.44;5007995;28;20226;-74